Time;durP1;ratioP1;P1;durP2;ratioP2;P2;SDS_P1;SDS_P2;PMS_P1;PMS_P2;Temp;Humidity;BMP_temperature;BMP_pressure;BME280_temperature;BME280_humidity;BME280_pressure;Samples;Min_cycle;Max_cycle;Signal;HPM_P1;HPM_P2
2022/12/29 00:00:30;;;;;;;5.08;2.12;;;;;;;-0.61;100.00;101203.53;1702513;84;21971;-60
2022/12/29 00:02:57;;;;;;;6.75;3.20;;;;;;;-0.67;100.00;101198.78;1703461;83;21007;-65
2022/12/29 00:05:24;;;;;;;8.38;2.95;;;;;;;-0.69;100.00;101190.34;1710360;83;21019;-60
2022/12/29 00:07:52;;;;;;;8.45;3.30;;;;;;;-0.74;100.00;101194.45;1710938;83;21248;-60
2022/12/29 00:10:19;;;;;;;8.85;3.62;;;;;;;-0.81;100.00;101199.09;1711075;83;21015;-60
2022/12/29 00:15:38;;;;;;;6.50;2.70;;;;;;;-0.89;100.00;101198.70;1710982;83;21344;-60
2022/12/29 00:18:05;;;;;;;5.00;2.58;;;;;;;-0.95;100.00;101201.59;1711148;83;21027;-61
2022/12/29 00:44:04;;;;;;;6.00;2.40;;;;;;;-1.31;100.00;101209.12;1710510;83;20995;-64
2022/12/29 00:45:21;;;;;;;7.17;3.15;;;;;;;-1.45;100.00;101205.20;1710240;83;21360;-61
2022/12/29 00:47:48;;;;;;;6.33;3.00;;;;;;;-1.48;100.00;101201.52;1710151;83;21030;-60
2022/12/29 00:50:15;;;;;;;5.03;2.62;;;;;;;-1.50;100.00;101202.07;1710468;83;21069;-61
2022/12/29 00:52:43;;;;;;;6.90;3.12;;;;;;;-1.53;100.00;101202.23;1709929;83;21474;-61
2022/12/29 00:55:10;;;;;;;7.00;3.02;;;;;;;-1.56;100.00;101203.66;1709544;83;21092;-61
2022/12/29 00:57:38;;;;;;;6.90;2.60;;;;;;;-1.56;100.00;101201.11;1710502;83;21510;-60
2022/12/29 01:00:07;;;;;;;5.55;2.67;;;;;;;-1.57;100.00;101207.95;1710290;83;21054;-60
2022/12/29 01:02:34;;;;;;;5.75;2.22;;;;;;;-1.59;100.00;101203.82;1710141;83;21492;-60
2022/12/29 01:05:03;;;;;;;8.25;3.45;;;;;;;-1.59;100.00;101211.48;1702503;83;21167;-62
2022/12/29 01:07:30;;;;;;;6.80;2.87;;;;;;;-1.57;100.00;101212.25;1701558;84;21036;-60
2022/12/29 01:10:10;;;;;;;7.75;2.87;;;;;;;-1.56;100.00;101215.17;1701875;83;21248;-60
2022/12/29 01:12:40;;;;;;;6.33;2.72;;;;;;;-1.57;100.00;101214.80;1701394;84;21537;-60
2022/12/29 01:15:10;;;;;;;8.18;2.98;;;;;;;-1.56;100.00;101221.10;1701490;84;20896;-60
2022/12/29 01:17:38;;;;;;;7.03;2.70;;;;;;;-1.54;100.00;101224.88;1701865;84;23013;-59
2022/12/29 01:20:06;;;;;;;6.05;2.95;;;;;;;-1.52;100.00;101226.87;1701835;84;20963;-62
2022/12/29 01:22:33;;;;;;;6.30;2.50;;;;;;;-1.54;100.00;101221.04;1701536;84;21003;-62
2022/12/29 01:25:01;;;;;;;8.05;2.92;;;;;;;-1.54;100.00;101221.04;1701477;84;21344;-66
2022/12/29 01:27:28;;;;;;;5.00;2.37;;;;;;;-1.56;100.00;101226.22;1701610;84;21070;-62
2022/12/29 01:29:55;;;;;;;7.47;2.83;;;;;;;-1.56;100.00;101232.61;1701833;84;21414;-62
2022/12/29 01:32:24;;;;;;;10.78;3.37;;;;;;;-1.56;100.00;101235.62;1701015;84;20896;-63
2022/12/29 01:34:51;;;;;;;7.08;3.20;;;;;;;-1.58;100.00;101225.95;1701879;84;21963;-62
2022/12/29 01:37:18;;;;;;;12.58;3.45;;;;;;;-1.60;100.00;101230.30;1701785;84;21106;-67
2022/12/29 01:39:46;;;;;;;7.83;3.05;;;;;;;-1.61;100.00;101233.77;1701883;84;21296;-62
2022/12/29 01:42:21;;;;;;;7.12;2.80;;;;;;;-1.62;100.00;101233.41;1701597;84;21284;-62
2022/12/29 01:44:56;;;;;;;7.10;2.92;;;;;;;-1.62;100.00;101233.41;1701803;84;21372;-59
2022/12/29 01:47:38;;;;;;;7.87;3.17;;;;;;;-1.61;100.00;101230.76;1700598;83;21000;-60
2022/12/29 01:50:26;;;;;;;8.80;3.67;;;;;;;-1.62;100.00;101229.58;1701212;84;20964;-61
2022/12/29 01:53:00;;;;;;;6.60;3.30;;;;;;;-1.64;100.00;101229.63;1700992;84;20935;-61
2022/12/29 01:55:29;;;;;;;9.30;3.20;;;;;;;-1.62;100.00;101233.41;1701716;83;21297;-61
2022/12/29 01:57:56;;;;;;;9.18;3.02;;;;;;;-1.62;100.00;101238.06;1701976;84;22183;-61
2022/12/29 02:00:23;;;;;;;8.75;3.50;;;;;;;-1.62;100.00;101236.78;1702051;84;21430;-61
2022/12/29 02:02:52;;;;;;;6.35;2.70;;;;;;;-1.62;100.00;101237.24;1701417;84;20980;-61
2022/12/29 02:05:31;;;;;;;10.10;3.77;;;;;;;-1.63;100.00;101235.56;1708312;83;20923;-62
2022/12/29 02:08:00;;;;;;;7.12;2.92;;;;;;;-1.63;100.00;101247.92;1710246;83;21223;-60
2022/12/29 02:10:29;;;;;;;6.70;2.90;;;;;;;-1.62;100.00;101250.02;1709423;83;20888;-61
2022/12/29 02:12:56;;;;;;;7.72;3.27;;;;;;;-1.59;100.00;101252.39;1710382;83;21187;-60
2022/12/29 02:15:45;;;;;;;6.85;2.98;;;;;;;-1.62;100.00;101248.28;1709680;83;21055;-60
2022/12/29 02:18:33;;;;;;;5.95;3.45;;;;;;;-1.63;100.00;101251.76;1709631;83;20915;-63
2022/12/29 02:21:24;;;;;;;5.83;3.02;;;;;;;-1.57;100.00;101256.53;1710223;83;21378;-60
2022/12/29 02:24:02;;;;;;;7.28;3.05;;;;;;;-1.57;100.00;101256.98;1670667;83;21631;-60
2022/12/29 02:26:53;;;;;;;6.85;3.02;;;;;;;-1.61;100.00;101263.98;1673681;83;21392;-59
2022/12/29 02:29:49;;;;;;;6.03;3.02;;;;;;;-1.61;100.00;101265.27;1709749;83;21010;-59
2022/12/29 02:32:46;;;;;;;10.18;4.10;;;;;;;-1.63;100.00;101270.08;1710266;83;21015;-61
2022/12/29 02:35:35;;;;;;;9.45;3.08;;;;;;;-1.68;100.00;101273.34;1710388;83;22187;-61
2022/12/29 02:38:25;;;;;;;10.43;3.90;;;;;;;-1.69;100.00;101274.25;1710512;83;20919;-65
2022/12/29 02:41:10;;;;;;;8.58;4.00;;;;;;;-1.69;100.00;101274.25;1710367;83;21011;-60
2022/12/29 02:43:48;;;;;;;10.78;3.62;;;;;;;-1.70;100.00;101279.81;1688345;83;21014;-62
2022/12/29 02:46:30;;;;;;;6.58;3.92;;;;;;;-1.71;100.00;101284.53;1710493;83;21047;-62
2022/12/29 02:49:29;;;;;;;9.93;3.72;;;;;;;-1.71;100.00;101284.08;1713408;83;21254;-62
2022/12/29 02:52:05;;;;;;;6.85;3.47;;;;;;;-1.68;100.00;101292.05;1710321;83;21493;-60
2022/12/29 02:54:41;;;;;;;8.53;4.08;;;;;;;-1.58;100.00;101289.86;1709882;83;20995;-66
2022/12/29 02:57:26;;;;;;;7.92;4.03;;;;;;;-1.56;100.00;101299.54;1711043;83;21547;-61
2022/12/29 03:00:11;;;;;;;9.15;4.62;;;;;;;-1.51;100.00;101292.48;1711190;83;20947;-61
2022/12/29 03:03:08;;;;;;;8.15;4.42;;;;;;;-1.47;100.00;101292.69;1711040;83;21547;-62
2022/12/29 03:06:12;;;;;;;9.50;4.17;;;;;;;-1.40;100.00;101296.58;1709942;83;21012;-67
2022/12/29 03:09:05;;;;;;;9.60;4.62;;;;;;;-1.44;100.00;101298.07;1656235;86;21108;-61
2022/12/29 03:17:38;;;;;;;8.80;4.72;;;;;;;-1.33;100.00;101296.60;1710201;83;21168;-61
2022/12/29 03:20:08;;;;;;;10.35;4.85;;;;;;;-1.31;100.00;101299.92;1709299;83;21082;-65
2022/12/29 03:22:42;;;;;;;12.35;5.58;;;;;;;-1.30;100.00;101303.30;1710508;83;21450;-61
2022/12/29 03:25:16;;;;;;;9.90;5.37;;;;;;;-1.31;100.00;101294.80;1710333;83;21011;-62
2022/12/29 03:27:54;;;;;;;11.05;5.50;;;;;;;-1.26;100.00;101296.66;1709754;82;20888;-62
2022/12/29 03:30:22;;;;;;;10.38;4.90;;;;;;;-1.37;100.00;101298.95;1707812;83;21160;-61
2022/12/29 03:32:56;;;;;;;10.48;5.42;;;;;;;-1.36;100.00;101300.63;1710344;83;20990;-62
2022/12/29 03:35:27;;;;;;;10.15;5.58;;;;;;;-1.37;100.00;101301.51;1710241;83;21567;-61
2022/12/29 03:38:18;;;;;;;8.65;4.85;;;;;;;-1.31;100.00;101308.87;1689401;83;21002;-61
2022/12/29 03:40:52;;;;;;;10.15;4.97;;;;;;;-1.33;100.00;101308.56;1710083;83;21109;-63
2022/12/29 03:43:19;;;;;;;9.95;5.53;;;;;;;-1.34;100.00;101310.77;1709928;83;22188;-65
2022/12/29 03:45:46;;;;;;;12.33;5.65;;;;;;;-1.25;100.00;101316.23;1690249;83;21022;-61
2022/12/29 03:48:14;;;;;;;10.82;5.90;;;;;;;-1.18;100.00;101310.31;1710729;83;21011;-61
2022/12/29 03:50:41;;;;;;;13.85;6.40;;;;;;;-1.13;100.00;101304.98;1709999;83;20932;-63
2022/12/29 03:53:08;;;;;;;11.73;6.47;;;;;;;-1.10;100.00;101306.92;1709951;83;21059;-66
2022/12/29 03:55:35;;;;;;;13.93;7.67;;;;;;;-1.08;100.00;101306.83;1710595;83;22016;-62
2022/12/29 03:58:03;;;;;;;20.32;10.88;;;;;;;-1.06;100.00;101303.72;1710616;83;20915;-61
2022/12/29 04:00:32;;;;;;;17.67;8.65;;;;;;;-1.04;100.00;101315.98;1708461;83;20990;-61
2022/12/29 04:02:59;;;;;;;17.10;8.10;;;;;;;-1.16;100.00;101317.92;1710137;83;20999;-60
2022/12/29 04:05:26;;;;;;;14.90;7.87;;;;;;;-1.03;100.00;101316.35;1696466;83;21040;-61
2022/12/29 04:07:55;;;;;;;12.23;7.42;;;;;;;-1.03;100.00;101324.03;1717378;81;21284;-61
2022/12/29 04:10:24;;;;;;;15.30;8.40;;;;;;;-0.98;100.00;101329.75;1717006;83;20899;-61
2022/12/29 04:12:53;;;;;;;14.47;8.05;;;;;;;-0.95;100.00;101333.85;1706242;83;20947;-62
2022/12/29 04:15:23;;;;;;;15.10;8.03;;;;;;;-0.93;100.00;101330.77;1686607;84;21383;-65
2022/12/29 04:17:50;;;;;;;15.00;8.93;;;;;;;-1.05;100.00;101333.08;1687365;84;22366;-60
2022/12/29 04:23:07;;;;;;;19.87;9.33;;;;;;;-0.88;100.00;101321.92;1686779;83;21295;-61
2022/12/29 04:25:36;;;;;;;15.55;8.70;;;;;;;-0.87;100.00;101324.02;1687201;84;21958;-61
2022/12/29 04:28:04;;;;;;;17.40;9.58;;;;;;;-0.85;100.00;101326.88;1687261;84;21068;-61
2022/12/29 04:30:48;;;;;;;15.68;7.87;;;;;;;-0.86;100.00;101322.68;1686481;84;21051;-65
2022/12/29 04:33:20;;;;;;;16.75;8.63;;;;;;;-0.85;100.00;101329.44;1686917;84;21426;-61
2022/12/29 04:35:47;;;;;;;14.30;7.97;;;;;;;-0.84;100.00;101327.70;1686994;83;20906;-61
2022/12/29 04:38:15;;;;;;;14.45;8.25;;;;;;;-0.83;100.00;101328.09;1686725;84;21050;-63
2022/12/29 04:40:43;;;;;;;17.80;8.50;;;;;;;-0.83;100.00;101336.59;1663684;84;21482;-63
2022/12/29 04:43:11;;;;;;;16.30;9.13;;;;;;;-0.80;100.00;101333.84;1687354;84;21084;-61
2022/12/29 04:45:46;;;;;;;21.52;9.18;;;;;;;-0.79;100.00;101325.28;1684276;84;21260;-62
2022/12/29 04:48:15;;;;;;;14.53;8.85;;;;;;;-0.79;100.00;101331.68;1684587;84;21017;-62
2022/12/29 04:50:48;;;;;;;16.17;10.77;;;;;;;-0.91;100.00;101320.83;1676425;84;21052;-61
2022/12/29 04:53:17;;;;;;;16.23;11.18;;;;;;;-0.76;100.00;101319.14;1686836;84;21486;-61
2022/12/29 04:55:44;;;;;;;14.95;9.93;;;;;;;-0.72;100.00;101321.08;1657573;86;20970;-62
2022/12/29 04:58:12;;;;;;;17.35;9.93;;;;;;;-0.70;100.00;101319.28;1686740;84;21472;-62
2022/12/29 05:00:39;;;;;;;16.82;10.00;;;;;;;-0.68;100.00;101317.44;1684998;83;21049;-66
2022/12/29 05:03:06;;;;;;;14.75;9.60;;;;;;;-0.66;100.00;101316.46;1717342;81;21002;-60
2022/12/29 05:05:34;;;;;;;19.12;10.85;;;;;;;-0.65;100.00;101318.10;1726970;81;21396;-61
2022/12/29 05:08:01;;;;;;;20.82;11.50;;;;;;;-0.63;100.00;101316.30;1737614;82;20864;-65
2022/12/29 05:10:31;;;;;;;18.42;11.05;;;;;;;-0.61;100.00;101316.20;1737388;82;21698;-60
2022/12/29 05:13:01;;;;;;;17.85;9.93;;;;;;;-0.60;100.00;101312.75;1736669;82;20837;-62
2022/12/29 05:15:28;;;;;;;19.67;11.35;;;;;;;-0.60;100.00;101308.91;1737445;82;21437;-60
2022/12/29 05:17:55;;;;;;;20.25;10.43;;;;;;;-0.61;100.00;101311.08;1738045;82;21026;-60
2022/12/29 05:20:23;;;;;;;20.95;11.20;;;;;;;-0.59;100.00;101306.71;1736908;82;20939;-61
2022/12/29 05:22:51;;;;;;;19.57;11.88;;;;;;;-0.59;100.00;101305.43;1737106;82;21862;-62
2022/12/29 05:25:18;;;;;;;21.90;11.08;;;;;;;-0.59;100.00;101310.09;1737243;82;21377;-61
2022/12/29 10:16:08;;;;;;;12.30;7.33;;;;;;;3.02;100.00;101267.55;1819857;78;22408;-60
2022/12/29 10:19:06;;;;;;;12.07;7.05;;;;;;;3.08;100.00;101269.23;1780492;80;21050;-66
2022/12/29 10:21:57;;;;;;;11.57;7.03;;;;;;;3.08;100.00;101266.66;1781277;80;21840;-60
2022/12/29 10:24:24;;;;;;;12.82;6.83;;;;;;;3.05;100.00;101277.17;1751030;80;21293;-60
2022/12/29 10:26:52;;;;;;;16.65;8.00;;;;;;;3.03;100.00;101272.62;1781708;79;20908;-60
2022/12/29 10:29:22;;;;;;;13.48;7.78;;;;;;;3.06;100.00;101276.23;1782196;79;20936;-60
2022/12/29 10:32:02;;;;;;;12.53;8.23;;;;;;;3.16;100.00;101277.23;1781315;79;20928;-60
2022/12/29 10:34:45;;;;;;;14.50;8.18;;;;;;;3.13;100.00;101272.77;1782244;80;21239;-61
2022/12/29 10:37:42;;;;;;;13.55;7.53;;;;;;;3.11;100.00;101269.02;1781773;79;20900;-67
2022/12/29 10:40:34;;;;;;;15.88;8.88;;;;;;;3.14;100.00;101279.55;1782108;80;21430;-61
2022/12/29 10:43:02;;;;;;;16.50;9.33;;;;;;;3.15;100.00;101273.02;1781737;80;21060;-60
2022/12/29 10:45:30;;;;;;;15.08;8.58;;;;;;;3.04;100.00;101275.54;1781371;79;20901;-60
2022/12/29 10:48:17;;;;;;;15.28;8.30;;;;;;;3.02;100.00;101283.02;1781437;80;21252;-60
2022/12/29 10:50:44;;;;;;;13.48;8.38;;;;;;;2.99;100.00;101279.36;1755499;80;21427;-61
2022/12/29 10:53:23;;;;;;;13.65;8.40;;;;;;;2.94;100.00;101278.41;1781683;80;20956;-61
2022/12/29 10:55:50;;;;;;;13.95;8.90;;;;;;;2.95;100.00;101281.80;1781823;80;20924;-60
2022/12/29 10:58:17;;;;;;;15.68;8.43;;;;;;;2.94;100.00;101277.11;1780677;79;21465;-63
2022/12/29 11:00:50;;;;;;;14.43;8.28;;;;;;;2.98;100.00;101274.67;1782080;79;22170;-60
2022/12/29 11:03:43;;;;;;;15.93;9.28;;;;;;;3.03;100.00;101275.19;1782263;80;21540;-59
2022/12/29 11:06:25;;;;;;;16.82;10.25;;;;;;;3.02;100.00;101265.80;1742503;81;22066;-60
2022/12/29 11:08:58;;;;;;;16.40;9.13;;;;;;;3.03;100.00;101264.04;1775904;79;21434;-60
2022/12/29 11:11:28;;;;;;;19.23;9.85;;;;;;;3.05;100.00;101257.04;1781207;79;20951;-64
2022/12/29 11:14:14;;;;;;;18.37;10.13;;;;;;;3.07;100.00;101262.89;1779222;79;21255;-59
2022/12/29 11:16:41;;;;;;;15.13;8.98;;;;;;;3.08;100.00;101248.62;1768874;80;21046;-60
2022/12/29 11:19:23;;;;;;;16.23;9.00;;;;;;;3.08;100.00;101247.34;1771064;79;20941;-66
2022/12/29 11:21:50;;;;;;;15.00;8.83;;;;;;;3.06;100.00;101245.80;1771935;79;20928;-60
2022/12/29 11:24:28;;;;;;;17.82;9.13;;;;;;;3.05;100.00;101244.98;1771442;79;20940;-60
2022/12/29 11:26:58;;;;;;;16.50;9.48;;;;;;;3.02;100.00;101246.48;1769560;80;21931;-65
2022/12/29 11:29:31;;;;;;;14.15;8.85;;;;;;;3.12;100.00;101247.47;1769785;80;20991;-60
2022/12/29 11:31:58;;;;;;;;;;;;;;;3.20;100.00;101243.53;1772296;80;20885;-62
2022/12/29 11:34:32;;;;;;;18.15;9.50;;;;;;;3.21;100.00;101247.27;1770792;81;20436;-60
2022/12/29 11:37:14;;;;;;;14.53;8.23;;;;;;;3.16;100.00;101239.88;1769662;81;21382;-61
2022/12/29 11:40:03;;;;;;;;;;;;;;;3.23;100.00;101241.55;1773451;79;21235;-60
2022/12/29 11:42:38;;;;;;;14.55;8.90;;;;;;;3.27;100.00;101238.29;1769433;80;20119;-67
2022/12/29 11:45:20;;;;;;;13.70;7.47;;;;;;;3.33;100.00;101238.67;1770867;81;20983;-60
2022/12/29 11:47:53;;;;;;;10.98;7.03;;;;;;;3.33;100.00;101241.69;1771264;81;21020;-60
2022/12/29 11:50:31;;;;;;;11.88;7.83;;;;;;;3.24;100.00;101234.64;1769841;79;21274;-60
2022/12/29 11:53:21;;;;;;;11.83;7.05;;;;;;;3.22;100.00;101239.92;1770140;79;21144;-61
2022/12/29 11:56:05;;;;;;;13.60;8.18;;;;;;;3.25;100.00;101238.85;1767468;80;21481;-62
2022/12/29 11:58:36;;;;;;;12.90;6.97;;;;;;;3.28;100.00;101236.06;1769798;80;21007;-61
2022/12/29 12:01:20;;;;;;;10.80;6.17;;;;;;;3.31;100.00;101230.69;1769922;80;21506;-60
2022/12/29 12:03:55;;;;;;;9.93;5.97;;;;;;;3.32;100.00;101236.19;1770179;79;21490;-60
2022/12/29 12:06:24;;;;;;;11.18;5.72;;;;;;;3.36;100.00;101239.71;1769859;80;21490;-60
2022/12/29 12:09:00;;;;;;;10.88;5.65;;;;;;;3.38;100.00;101239.15;1769399;81;21081;-61
2022/12/29 12:11:37;;;;;;;9.95;5.40;;;;;;;3.32;100.00;101244.73;1769863;79;20971;-60
2022/12/29 12:14:20;;;;;;;8.78;5.05;;;;;;;3.42;100.00;101237.17;1772893;79;21007;-60
2022/12/29 12:17:06;;;;;;;8.83;5.00;;;;;;;3.48;100.00;101243.14;1783662;79;21931;-64
2022/12/29 12:19:53;;;;;;;9.20;4.78;;;;;;;3.53;100.00;101242.36;1786734;80;21882;-59
2022/12/29 12:22:37;;;;;;;10.38;5.22;;;;;;;3.56;100.00;101236.98;1785628;79;21081;-60
2022/12/29 12:25:18;;;;;;;15.18;7.17;;;;;;;3.62;100.00;101242.95;1786750;79;20928;-60
2022/12/29 12:27:55;;;;;;;9.25;5.42;;;;;;;3.64;100.00;101232.07;1785851;80;20990;-59
2022/12/29 12:30:24;;;;;;;10.10;4.65;;;;;;;3.59;100.00;101236.73;1786740;80;21030;-59
2022/12/29 12:33:31;;;;;;;9.70;4.90;;;;;;;3.55;100.00;101235.31;1786866;80;21244;-60
2022/12/29 12:36:06;;;;;;;9.70;4.50;;;;;;;3.54;100.00;101236.26;1786578;80;21816;-59
2022/12/29 12:39:25;;;;;;;8.33;4.70;;;;;;;3.53;100.00;101241.06;1786344;79;21425;-59
2022/12/29 12:42:08;;;;;;;9.95;5.72;;;;;;;3.47;100.00;101241.98;1786426;80;20978;-59
2022/12/29 12:45:03;;;;;;;10.55;5.35;;;;;;;3.41;100.00;101241.98;1785849;79;21246;-60
2022/12/29 12:47:44;;;;;;;9.20;5.33;;;;;;;3.30;100.00;101245.80;1786287;80;21745;-65
2022/12/29 12:50:32;;;;;;;8.60;5.20;;;;;;;3.28;100.00;101238.64;1786300;79;21840;-60
2022/12/29 12:53:20;;;;;;;9.58;5.37;;;;;;;3.23;100.00;101242.84;1786357;79;20917;-59
2022/12/29 12:56:01;;;;;;;12.47;6.00;;;;;;;3.14;100.00;101243.05;1786213;79;21221;-59
2022/12/29 12:58:58;;;;;;;9.00;5.67;;;;;;;3.03;100.00;101239.57;1747601;79;20972;-60
2022/12/29 13:01:53;;;;;;;10.08;5.28;;;;;;;2.99;100.00;101242.83;1786237;79;21229;-59
2022/12/29 13:04:40;;;;;;;12.10;6.45;;;;;;;2.93;100.00;101235.09;1763210;79;20903;-66
2022/12/29 13:07:50;;;;;;;17.48;9.83;;;;;;;2.91;100.00;101238.22;1786693;79;21079;-61
2022/12/29 13:10:38;;;;;;;11.55;7.28;;;;;;;2.90;100.00;101236.59;1786638;80;21514;-59
2022/12/29 13:13:34;;;;;;;15.93;9.45;;;;;;;2.84;100.00;101234.47;1786021;79;21035;-58
2022/12/29 13:16:25;;;;;;;10.23;6.10;;;;;;;2.81;100.00;101237.73;1773008;79;22391;-61
2022/12/29 13:19:06;;;;;;;13.88;8.25;;;;;;;2.79;100.00;101241.68;1769574;81;21018;-62
2022/12/29 13:22:03;;;;;;;12.00;7.10;;;;;;;2.75;100.00;101235.57;1770252;79;20956;-59
2022/12/29 13:25:02;;;;;;;17.02;10.18;;;;;;;2.57;100.00;101237.20;1770152;81;21130;-59
2022/12/29 13:27:52;;;;;;;12.82;7.25;;;;;;;2.53;100.00;101233.67;1769479;79;20977;-61
2022/12/29 13:30:21;;;;;;;12.23;6.87;;;;;;;2.42;100.00;101235.70;1770282;80;21155;-59
2022/12/29 13:33:19;;;;;;;11.78;6.55;;;;;;;2.28;100.00;101234.09;1757045;81;20929;-59
2022/12/29 13:36:09;;;;;;;12.10;7.95;;;;;;;2.12;100.00;101234.33;1769952;79;20971;-59
2022/12/29 13:38:43;;;;;;;14.23;7.60;;;;;;;1.92;100.00;101237.41;1768578;80;21482;-64
2022/12/29 13:41:15;;;;;;;13.22;7.58;;;;;;;1.88;100.00;101234.21;1770039;81;20980;-61
2022/12/29 13:43:42;;;;;;;12.68;7.00;;;;;;;1.86;100.00;101243.80;1755863;80;21224;-60
2022/12/29 13:46:18;;;;;;;11.55;6.90;;;;;;;1.86;100.00;101245.08;1769138;79;20984;-60
2022/12/29 13:48:52;;;;;;;10.63;6.47;;;;;;;1.85;100.00;101239.55;1769644;81;20928;-59
2022/12/29 13:51:21;;;;;;;10.88;5.30;;;;;;;1.87;100.00;101240.29;1769981;79;20933;-59
2022/12/29 13:54:19;;;;;;;9.95;5.67;;;;;;;1.89;100.00;101241.45;1769530;81;21512;-61
2022/12/29 13:57:10;;;;;;;10.90;6.83;;;;;;;1.87;100.00;101236.44;1769600;79;21388;-59
2022/12/29 13:59:42;;;;;;;8.65;5.15;;;;;;;1.87;100.00;101239.47;1769173;81;22264;-60
2022/12/29 14:02:46;;;;;;;8.00;5.37;;;;;;;1.88;100.00;101243.68;1770189;81;20972;-60
2022/12/29 14:05:27;;;;;;;9.55;5.55;;;;;;;1.84;100.00;101249.95;1769971;81;21041;-59
2022/12/29 14:08:05;;;;;;;9.48;5.35;;;;;;;1.87;100.00;101242.05;1770079;79;21402;-60
2022/12/29 14:10:38;;;;;;;8.48;5.25;;;;;;;1.91;100.00;101237.05;1769649;81;21310;-65
2022/12/29 14:13:17;;;;;;;10.63;5.58;;;;;;;1.92;100.00;101240.80;1769890;80;20885;-59
2022/12/29 14:15:47;;;;;;;10.30;5.70;;;;;;;1.93;100.00;101237.32;1779840;80;21015;-59
2022/12/29 14:18:21;;;;;;;11.90;7.97;;;;;;;1.91;100.00;101228.05;1786517;79;20951;-65
2022/12/29 14:21:12;;;;;;;11.45;8.53;;;;;;;1.87;100.00;101222.76;1787351;80;20943;-59
2022/12/29 14:23:45;;;;;;;9.55;6.30;;;;;;;1.88;100.00;101223.11;1786258;79;21894;-65
2022/12/29 14:26:34;;;;;;;8.50;5.35;;;;;;;1.86;100.00;101224.98;1786328;80;21029;-59
2022/12/29 14:29:26;;;;;;;10.30;4.95;;;;;;;1.84;100.00;101221.20;1785936;79;20924;-58
2022/12/29 14:31:54;;;;;;;9.48;5.67;;;;;;;1.81;100.00;101225.73;1786272;79;21450;-59
2022/12/29 14:34:28;;;;;;;11.00;6.67;;;;;;;1.72;100.00;101234.06;1786514;79;20833;-59
2022/12/29 14:37:01;;;;;;;9.95;5.70;;;;;;;1.69;100.00;101241.04;1786106;79;21146;-60
2022/12/29 14:39:41;;;;;;;11.05;6.08;;;;;;;1.64;100.00;101239.25;1786707;80;20998;-60
2022/12/29 14:42:14;;;;;;;9.78;6.17;;;;;;;1.61;100.00;101238.16;1786255;79;21565;-59
2022/12/29 14:45:15;;;;;;;11.20;6.28;;;;;;;1.58;100.00;101233.68;1786529;80;21055;-63
2022/12/29 14:47:44;;;;;;;9.55;4.37;;;;;;;1.59;100.00;101230.17;1787061;80;20966;-59
2022/12/29 14:50:25;;;;;;;8.93;4.75;;;;;;;1.67;100.00;101226.20;1785945;80;21166;-62
2022/12/29 14:52:57;;;;;;;10.50;5.30;;;;;;;1.70;100.00;101233.71;1785898;79;21457;-60
2022/12/29 14:55:55;;;;;;;9.23;5.10;;;;;;;1.66;100.00;101237.38;1786995;80;20967;-60
2022/12/29 14:58:31;;;;;;;10.32;5.97;;;;;;;1.62;100.00;101243.66;1787164;79;20972;-59
2022/12/29 15:00:59;;;;;;;10.70;6.15;;;;;;;1.60;100.00;101239.09;1767795;80;21478;-58
2022/12/29 15:03:36;;;;;;;12.85;6.80;;;;;;;1.59;100.00;101241.31;1786694;80;21498;-65
2022/12/29 15:06:11;;;;;;;13.70;8.00;;;;;;;1.57;100.00;101248.28;1786125;79;21045;-59
2022/12/29 15:08:42;;;;;;;11.15;6.95;;;;;;;1.58;100.00;101247.81;1787286;79;21015;-59
2022/12/29 15:11:21;;;;;;;;;;;;;;;1.57;100.00;101251.31;1788336;79;20976;-63
2022/12/29 15:13:49;;;;;;;15.63;7.58;;;;;;;1.57;100.00;101244.42;1785356;79;20158;-59
2022/12/29 15:16:31;;;;;;;14.18;8.58;;;;;;;1.55;100.00;101242.87;1776323;79;21231;-59
2022/12/29 15:18:58;;;;;;;14.93;8.08;;;;;;;1.56;100.00;101245.36;1757096;81;20902;-60
2022/12/29 15:21:30;;;;;;;14.40;8.18;;;;;;;1.57;100.00;101244.42;1770893;81;21030;-58
2022/12/29 15:23:57;;;;;;;;;;;;;;;1.59;100.00;101241.74;1773575;81;20913;-59
2022/12/29 15:26:39;;;;;;;12.05;6.87;;;;;;;1.59;100.00;101240.02;1770978;81;20147;-60
2022/12/29 15:29:08;;;;;;;11.55;7.17;;;;;;;1.62;100.00;101242.36;1759829;81;21439;-59
2022/12/29 15:31:36;;;;;;;15.13;7.20;;;;;;;1.65;100.00;101240.06;1768517;80;21053;-59
2022/12/29 15:34:11;;;;;;;12.00;7.30;;;;;;;1.64;100.00;101237.96;1732538;81;20987;-59
2022/12/29 15:36:39;;;;;;;12.88;7.85;;;;;;;1.66;100.00;101241.70;1770042;79;21075;-59
2022/12/29 15:39:29;;;;;;;13.90;8.75;;;;;;;1.68;100.00;101228.30;1770248;81;21481;-59
2022/12/29 15:42:19;;;;;;;11.30;6.92;;;;;;;1.70;100.00;101229.86;1769693;79;21267;-62
2022/12/29 15:44:46;;;;;;;14.35;7.87;;;;;;;1.69;100.00;101226.09;1770595;80;21101;-61
2022/12/29 15:47:25;;;;;;;12.50;6.90;;;;;;;1.66;100.00;101220.67;1770549;79;20932;-59
2022/12/29 15:50:25;;;;;;;9.83;6.53;;;;;;;1.63;100.00;101225.20;1770406;81;21213;-58
2022/12/29 15:52:52;;;;;;;12.00;6.62;;;;;;;1.64;100.00;101225.11;1770392;79;20925;-61
2022/12/29 15:55:34;;;;;;;10.28;6.60;;;;;;;1.69;100.00;101227.38;1769470;79;21546;-59
2022/12/29 15:58:04;;;;;;;11.65;6.58;;;;;;;1.69;100.00;101224.34;1770520;81;20866;-59
2022/12/29 16:00:34;;;;;;;10.23;6.20;;;;;;;1.70;100.00;101214.44;1771171;81;20929;-59
2022/12/29 16:03:03;;;;;;;12.10;6.20;;;;;;;1.69;100.00;101215.34;1770466;81;21056;-60
2022/12/29 16:05:37;;;;;;;12.65;7.00;;;;;;;1.67;100.00;101206.92;1770780;81;21040;-59
2022/12/29 16:08:26;;;;;;;10.32;6.00;;;;;;;1.68;100.00;101213.70;1770738;79;22282;-59
2022/12/29 16:10:56;;;;;;;13.48;7.10;;;;;;;1.67;100.00;101199.68;1770927;79;21367;-58
2022/12/29 16:13:41;;;;;;;10.32;6.37;;;;;;;1.68;100.00;101194.42;1770529;81;20997;-59
2022/12/29 16:16:16;;;;;;;11.33;6.85;;;;;;;1.68;100.00;101194.89;1778095;79;21516;-63
2022/12/29 16:18:43;;;;;;;13.35;7.33;;;;;;;1.69;100.00;101189.64;1787345;79;21990;-58
2022/12/29 16:21:26;;;;;;;12.75;7.40;;;;;;;1.71;100.00;101185.70;1742337;80;21159;-59
2022/12/29 16:23:57;;;;;;;10.48;7.15;;;;;;;1.70;100.00;101186.60;1786397;79;20935;-65
2022/12/29 16:26:24;;;;;;;10.93;6.90;;;;;;;1.66;100.00;101188.55;1787050;79;21744;-58
2022/12/29 16:28:57;;;;;;;13.25;6.90;;;;;;;1.65;100.00;101183.52;1786741;79;21039;-59
2022/12/29 16:32:05;;;;;;;10.65;6.40;;;;;;;1.67;100.00;101180.41;1786900;79;20920;-58
2022/12/29 16:34:33;;;;;;;11.35;7.25;;;;;;;1.64;100.00;101181.89;1759371;79;21823;-61
2022/12/29 16:37:25;;;;;;;9.95;6.85;;;;;;;1.66;100.00;101183.88;1786948;80;20972;-60
2022/12/29 16:39:53;;;;;;;12.43;7.85;;;;;;;1.67;100.00;101181.69;1787044;80;21351;-61
2022/12/29 16:42:40;;;;;;;11.68;6.47;;;;;;;1.69;100.00;101179.36;1786693;79;20865;-60
2022/12/29 16:45:24;;;;;;;12.82;6.55;;;;;;;1.73;100.00;101176.59;1785742;80;21548;-66
2022/12/29 16:48:15;;;;;;;13.32;6.70;;;;;;;1.77;100.00;101178.02;1786728;80;21267;-61
2022/12/29 16:50:43;;;;;;;9.65;5.28;;;;;;;1.83;100.00;101176.33;1786039;79;20963;-63
2022/12/29 16:53:26;;;;;;;13.50;6.15;;;;;;;1.83;100.00;101174.58;1786641;79;21420;-58
2022/12/29 16:55:53;;;;;;;13.20;8.05;;;;;;;1.88;100.00;101176.37;1785897;80;21592;-63
2022/12/29 16:58:27;;;;;;;12.63;7.12;;;;;;;1.90;100.00;101171.14;1786257;80;21437;-61
2022/12/29 17:00:55;;;;;;;12.10;6.75;;;;;;;1.93;100.00;101171.75;1785727;79;21237;-59
2022/12/29 17:03:34;;;;;;;13.03;6.53;;;;;;;1.96;100.00;101171.98;1786445;79;21009;-59
2022/12/29 17:06:01;;;;;;;12.73;6.95;;;;;;;1.97;100.00;101181.80;1786209;80;20877;-62
2022/12/29 17:08:31;;;;;;;12.25;7.80;;;;;;;1.97;100.00;101176.23;1766611;80;21359;-65
2022/12/29 17:13:44;;;;;;;11.25;6.55;;;;;;;1.99;100.00;101176.11;1785622;79;21518;-59
2022/12/29 17:16:11;;;;;;;10.15;6.35;;;;;;;1.87;100.00;101168.77;1780193;79;21110;-65
2022/12/29 17:18:39;;;;;;;10.95;5.92;;;;;;;1.85;100.00;101175.28;1769332;79;20967;-60
2022/12/29 17:21:06;;;;;;;10.82;6.10;;;;;;;1.84;100.00;101158.22;1769906;79;21111;-61
2022/12/29 17:23:35;;;;;;;9.98;6.05;;;;;;;1.86;100.00;101167.95;1769628;79;20944;-66